Aérodrome :
LOGIN :

S'inscrire | Disclaimer

   EN    FR    IT 

 










Légende :    VFR   VFR Marginal   IFR   IFR Intensif   IFR Très Intensif
Visi : 
Plafond : 
>= 8 km
>= 3000ft
5 à 8 km
1000 à 3000 ft
1500m à 5 km
500 à 1000 ft
800 à 1500m
200 à 500 ft
< 800m
< 200 ft
Symboles :   Orages  Brouillard  Fortes neiges  Fortes précipitations  Vent > 20 kt
SIGMETs :   Divers  Orages  Givrage  Turbulence  Onde Orograph.  Cendres Volcan.






- Altitude de l'aérodrome : 33 ft
- Code IATA : MHZ


EGUN - RAF Mildenhall

DERNIER METAR :
  • 090956Z 25010KT 9999 BKN038 BKN180 05/05 A2954 RMK AO2A SLP007 T00530053 $

METARs EXPIRÉS :
  • 090906Z AUTO 25011KT 9999 SCT027 OVC035 05/05 A2954 RMK AO2 SLP007 $
  • 090856Z AUTO 25011KT 9999 BKN027 OVC033 05/05 A2954 RMK AO2 CIG 027V036 BKN V SCT SLP007 60000 T00500050 52016 $
  • 090756Z 27014KT 9999 FEW030 BKN039 05/05 A2952 RMK AO2A SLP000 T00470047 $

TAF TAF EGUN
Valide du 09 à 04h jusqu'au 10 à 10h UTC


090400Z 0904/1010 24010G15KT 9000 -SHRA BKN025 OVC030 610303 QNH2936INS
BECMG 0906/0907 26010G15KT 9999 NSW BKN025 OVC030 620302 QNH2946INS
BECMG 0911/0912 25010G15KT 9999 SCT020 BKN030 QNH2946INS
BECMG 0914/0915 23010G15KT 9999 SCT025 SCT120 QNH2939INS
BECMG 0917/0919 18012KT 9999 FEW030 BKN050 610509 QNH2927INS
BECMG 0919/0920 17012G18KT 9000 -RA SCT005 OVC010 650456 QNH2920INS
BECMG 1000/1001 26012G18KT 8000 -SHRA SCT005 BKN010 OVC015 640453 QNH2920INS
BECMG 1002/1003 30012G18KT 8000 -SHRA BKN010 610356 QNH2923INS
TEMPO 1003/1006 30015G25KT 510003
BECMG 1005/1006 30015G20KT 9999 NSW SCT020 QNH2926INS
TEMPO 1006/1010 30018G28KT 510003 TX07/0912Z TN04/0921Z



MET'MAP, la Météo Aéronautique d'un coup d'oeil ! - Copyright ORBIFLY Décembre 2007 - Disclaimer

ORBIFLY MET'MAP TEAM :

Programmation & Développement : Alexandra Zaïnal
Sur une idée originale de : Baudouin d'Aumeries
Assistance à la programmation : Marc-Olivier Méhu
Soutien technique & logistique : Manuel Goepfert

Contact : metmap@orbifly.com




SOURCES & CREDITS :

   NOAA